Latest Weather Observations for Perth Airport

IDW60801

Issued at 2:05 pm WST Saturday 30 August 2014 (issued every 30 minutes, with the page automatically refreshed every 10 minutes)

About weather observations | Map of weather stations | Latest weather observations for WA | Other Formats
Station Details ID: 009021 Name: PERTH AIRPORT Lat: -31.93 Lon: 115.98 Height: 15.4 m
Data from the previous 72 hours. | See also: Recent months at Perth Airport
Date/Time
WST
Temp
°C
App
Temp
°C
Dew
Point
Rel
Hum
%
Delta-T
°C
Wind Press
QNH
hPa
Press
MSL
hPa
Rain
since 9 am
mm
Dir
 
Spd
km/h
Gust
km/h
Spd
kts
Gust
kts
30/02:00pm 18.1 14.7 10.4 60 4.1 SSW 19 24 10 13 1015.3 - 0.0
30/01:30pm 18.0 14.5 11.0 63 3.8 SW 20 26 11 14 1015.5 - 0.0
30/01:00pm 18.5 16.4 11.1 62 4.0 WNW 13 20 7 11 1015.5 - 0.0
30/12:30pm 17.5 16.4 11.8 69 3.1 WSW 9 13 5 7 1016.0 - 0.0
30/12:00pm 17.1 15.8 12.4 74 2.6 SSW 11 19 6 10 1016.2 1016.2 0.0
30/11:30am 15.6 13.7 13.1 85 1.4 SSW 15 19 8 10 1016.3 - 0.0
30/11:00am 16.3 14.1 13.4 83 1.6 SSW 17 28 9 15 1016.3 - 0.0
30/10:30am 17.1 14.9 13.2 78 2.2 S 17 22 9 12 1016.2 - 0.0
30/10:00am 16.4 14.5 14.1 86 1.3 S 17 24 9 13 1016.3 - 0.0
30/09:30am 16.2 13.8 14.4 89 1.0 S 20 24 11 13 1016.0 - 0.0
30/09:00am 15.4 12.2 14.3 93 0.6 SSW 24 33 13 18 1016.1 1016.1 43.4
30/08:54am 15.6 12.9 14.5 93 0.6 SSW 22 33 12 18 1016.1 - 43.2
30/08:30am 15.5 14.4 14.4 93 0.6 SSW 13 17 7 9 1015.8 - 43.2
30/08:00am 15.3 13.9 14.6 96 0.4 SSW 15 17 8 9 1015.6 - 43.2
30/07:44am 15.3 14.3 14.6 96 0.4 SSW 13 15 7 8 1015.2 - 43.2
30/07:30am 15.3 14.7 14.6 96 0.4 S 11 17 6 9 1015.0 - 43.2
30/07:22am 15.3 15.1 14.8 97 0.3 SSW 9 11 5 6 1014.8 - 43.2
30/07:00am 15.2 14.6 14.7 97 0.3 SSW 11 11 6 6 1014.5 - 43.0
30/06:30am 15.3 13.6 14.6 96 0.4 SSW 17 24 9 13 1014.0 - 43.0
30/06:08am 15.3 14.8 15.0 98 0.2 SSW 11 17 6 9 1013.9 - 43.0
30/06:00am 15.2 15.1 14.9 98 0.2 S 9 13 5 7 1013.9 1013.9 43.0
30/05:54am 15.2 15.1 14.9 98 0.2 S 9 13 5 7 1013.6 - 43.0
30/05:30am 14.9 14.6 14.5 97 0.2 NW 9 11 5 6 1013.4 - 43.0
30/05:26am 14.9 14.6 14.5 97 0.2 NNW 9 11 5 6 1013.4 - 43.0
30/05:10am 14.9 15.2 14.5 97 0.2 NNW 6 9 3 5 1013.2 - 42.6
30/05:00am 14.8 14.5 14.4 97 0.2 NNW 9 13 5 7 1013.2 - 42.6
30/04:40am 14.8 14.1 14.4 97 0.2 N 11 13 6 7 1013.0 - 41.6
30/04:30am 14.7 13.2 14.3 97 0.2 N 15 17 8 9 1012.9 - 41.4
30/04:12am 14.7 12.8 14.3 97 0.2 N 17 20 9 11 1012.9 - 41.4
30/04:00am 14.6 13.5 14.2 97 0.2 N 13 17 7 9 1012.9 - 41.4
30/03:50am 14.5 13.0 14.3 99 0.1 NNE 15 19 8 10 1013.0 - 41.4
30/03:30am 14.5 13.3 14.1 97 0.2 N 13 17 7 9 1013.0 - 41.4
30/03:00am 14.7 13.6 14.3 97 0.2 NNE 13 17 7 9 1013.2 1013.2 41.4
30/02:30am 14.6 13.5 14.2 97 0.2 NNE 13 17 7 9 1013.2 - 41.2
30/02:17am 14.6 13.5 14.2 97 0.2 NNE 13 15 7 8 1013.4 - 40.4
30/02:06am 14.6 13.5 14.2 97 0.2 NNE 13 15 7 8 1013.5 - 40.0
30/02:00am 14.6 13.5 14.4 99 0.1 N 13 15 7 8 1013.8 - 39.6
30/01:30am 14.8 14.5 14.4 97 0.2 NNW 9 11 5 6 1013.6 - 38.4
30/01:00am 14.6 13.9 14.2 97 0.2 NNE 11 15 6 8 1013.6 - 37.8
30/12:33am 14.6 14.2 14.2 97 0.2 N 9 13 5 7 1013.6 - 37.2
30/12:30am 14.6 14.2 14.2 97 0.2 N 9 9 5 5 1013.7 - 37.2
30/12:00am 14.6 13.9 14.2 97 0.2 NNW 11 15 6 8 1014.0 1014.0 36.8
 
Date/Time
WST
Temp
°C
App
Temp
°C
Dew
Point
Rel
Hum
%
Delta-T
°C
Wind Press
QNH
hPa
Press
MSL
hPa
Rain
since 9 am
mm
Dir
 
Spd
km/h
Gust
km/h
Spd
kts
Gust
kts
29/11:30pm 14.6 14.6 14.2 97 0.2 WNW 7 11 4 6 1014.4 - 34.4
29/11:11pm 14.6 15.9 14.2 97 0.2 CALM 0 0 0 0 1014.4 - 33.4
29/11:06pm 14.7 15.7 14.2 97 0.3 W 2 7 1 4 1014.3 - 33.4
29/11:00pm 14.7 14.9 14.2 97 0.3 W 6 9 3 5 1014.2 - 33.2
29/10:53pm 14.6 15.1 14.1 97 0.3 W 4 7 2 4 1014.1 - 33.2
29/10:30pm 14.8 15.0 14.3 97 0.3 W 6 9 3 5 1014.5 - 33.0
29/10:14pm 14.8 14.5 14.4 97 0.2 NW 9 11 5 6 1014.7 - 32.6
29/10:00pm 14.9 15.0 14.4 97 0.3 NNW 7 9 4 5 1014.5 - 31.4
29/09:30pm 15.4 15.2 14.7 96 0.4 WNW 9 13 5 7 1014.4 - 28.6
29/09:16pm 15.5 15.0 14.8 96 0.4 WNW 11 24 6 13 1014.3 - 28.0
29/09:00pm 15.7 15.7 15.2 97 0.3 WNW 9 13 5 7 1014.1 1014.1 27.4
29/08:42pm 15.7 16.0 15.0 96 0.4 W 7 15 4 8 1014.1 - 27.4
29/08:30pm 15.7 14.9 15.0 96 0.4 WSW 13 19 7 10 1014.2 - 27.2
29/08:02pm 15.5 13.9 15.0 97 0.3 NW 17 32 9 17 1014.9 - 25.4
29/08:00pm 15.5 13.8 14.8 96 0.4 NW 17 32 9 17 1014.9 - 25.2
29/07:36pm 15.5 15.0 14.8 96 0.4 NW 11 15 6 8 1014.2 - 24.4
29/07:30pm 15.5 15.3 14.8 96 0.4 WNW 9 11 5 6 1014.0 - 24.2
29/07:24pm 15.6 15.5 14.9 96 0.4 W 9 17 5 9 1013.8 - 24.0
29/07:00pm 15.7 12.3 14.8 94 0.5 WSW 26 35 14 19 1014.0 - 21.2
29/06:30pm 17.0 16.3 16.5 97 0.3 W 15 20 8 11 1013.3 - 14.8
29/06:16pm 17.1 14.7 16.3 95 0.5 NW 24 35 13 19 1013.1 - 12.6
29/06:00pm 17.3 15.6 16.3 94 0.6 NW 20 26 11 14 1012.9 1012.9 11.4
29/05:30pm 17.4 15.2 16.0 91 0.8 NW 22 33 12 18 1013.1 - 11.2
29/05:00pm 17.6 16.0 16.4 93 0.7 NW 20 30 11 16 1013.0 - 11.0
29/04:30pm 17.6 15.1 16.1 91 0.9 WNW 24 33 13 18 1012.9 - 10.0
29/04:20pm 17.7 14.6 16.5 93 0.7 WNW 28 44 15 24 1013.1 - 9.2
29/04:09pm 18.4 15.7 16.6 89 1.1 WNW 26 43 14 23 1013.0 - 7.0
29/04:05pm 18.7 16.7 16.4 86 1.4 WNW 22 33 12 18 1012.8 - 6.4
29/04:00pm 18.8 17.4 16.5 86 1.4 WNW 19 30 10 16 1012.7 - 6.4
29/03:30pm 18.7 17.0 16.2 85 1.5 WNW 20 35 11 19 1012.6 - 6.4
29/03:00pm 18.7 17.8 15.8 83 1.7 WNW 15 20 8 11 1012.8 1012.8 6.2
29/02:30pm 18.1 16.5 15.9 87 1.3 NW 19 26 10 14 1013.0 - 6.2
29/02:00pm 17.9 16.8 16.4 91 0.9 NW 17 24 9 13 1013.1 - 6.2
29/01:51pm 17.7 17.3 16.2 91 0.9 WNW 13 19 7 10 1013.1 - 6.2
29/01:30pm 17.6 17.3 16.4 93 0.7 WNW 13 19 7 10 1013.2 - 6.2
29/01:26pm 17.6 16.8 16.1 91 0.9 WNW 15 19 8 10 1013.2 - 6.0
29/01:00pm 17.4 16.9 16.0 91 0.8 W 13 20 7 11 1013.2 - 5.8
29/12:43pm 17.2 17.0 15.8 91 0.8 WSW 11 17 6 9 1013.3 - 5.8
29/12:30pm 17.7 15.2 16.2 91 0.9 W 24 35 13 19 1013.3 - 5.0
29/12:28pm 18.2 15.5 15.7 85 1.5 W 24 35 13 19 1013.0 - 2.0
29/12:25pm 18.4 14.9 15.5 83 1.7 NW 28 41 15 22 1012.9 - 1.4
29/12:20pm 18.7 14.5 15.7 83 1.8 NW 32 48 17 26 1012.9 - 0.6
29/12:00pm 19.7 14.3 15.1 75 2.7 NW 37 57 20 31 1013.1 1013.1 0.0
29/11:30am 21.5 15.3 13.7 61 4.5 NW 39 57 21 31 1013.1 - 0.0
29/11:08am 21.8 16.0 13.9 61 4.6 NW 37 56 20 30 1013.2 - 0.0
29/11:00am 21.7 15.4 13.6 60 4.7 NW 39 56 21 30 1013.1 - 0.0
29/10:37am 21.3 15.6 14.1 63 4.2 NW 37 56 20 30 1013.1 - 0.0
29/10:30am 21.6 15.5 14.2 62 4.3 NW 39 56 21 30 1013.3 - 0.0
29/10:00am 21.2 16.3 14.2 64 4.1 NNW 33 56 18 30 1013.4 - 0.0
29/09:54am 20.8 15.7 14.7 68 3.6 NW 35 56 19 30 1013.5 - 0.0
29/09:30am 20.4 16.4 15.1 71 3.1 N 30 41 16 22 1013.4 - 0.0
29/09:00am 19.5 16.0 15.6 78 2.3 N 28 37 15 20 1013.6 1013.6 0.0
29/08:30am 18.4 16.7 15.7 84 1.6 N 19 28 10 15 1013.6 - 0.0
29/08:00am 17.3 14.9 15.4 88 1.1 N 22 30 12 16 1013.2 - 0.0
29/07:30am 16.1 14.0 15.2 94 0.5 N 20 28 11 15 1013.1 - 0.0
29/07:00am 15.4 13.7 14.7 96 0.4 N 17 20 9 11 1013.0 - 0.0
29/06:30am 15.0 13.2 14.5 97 0.3 N 17 20 9 11 1013.0 - 0.0
29/06:00am 14.7 12.4 14.2 97 0.3 N 19 26 10 14 1013.1 1013.1 0.0
29/05:30am 14.4 12.8 13.9 97 0.3 NNE 15 19 8 10 1013.0 - 0.0
29/05:00am 14.2 12.1 13.7 97 0.3 N 17 19 9 10 1013.2 - 0.0
29/04:30am 14.0 12.3 13.5 97 0.3 NNE 15 19 8 10 1013.1 - 0.0
29/04:00am 13.9 12.4 13.2 96 0.4 N 13 15 7 8 1013.3 - 0.0
29/03:30am 13.8 12.6 12.9 94 0.5 NNE 11 13 6 7 1013.2 - 0.0
29/03:00am 14.0 12.8 12.7 92 0.7 N 11 15 6 8 1013.5 1013.5 0.0
29/02:30am 13.9 11.8 12.4 91 0.8 N 15 19 8 10 1013.6 - 0.0
29/02:00am 13.5 11.2 11.8 89 0.9 NNE 15 17 8 9 1013.9 - 0.0
29/01:30am 13.7 11.7 11.4 86 1.2 NNE 13 15 7 8 1013.9 - 0.0
29/01:00am 13.6 11.9 11.3 86 1.2 NNE 11 13 6 7 1014.1 - 0.0
29/12:30am 13.8 12.2 11.4 85 1.3 NNE 11 13 6 7 1014.3 - 0.0
29/12:00am 14.3 12.7 11.5 83 1.5 NNE 11 13 6 7 1014.3 1014.3 0.0
 
Date/Time
WST
Temp
°C
App
Temp
°C
Dew
Point
Rel
Hum
%
Delta-T
°C
Wind Press
QNH
hPa
Press
MSL
hPa
Rain
since 9 am
mm
Dir
 
Spd
km/h
Gust
km/h
Spd
kts
Gust
kts
28/11:30pm 14.8 12.8 11.6 81 1.7 NNE 13 15 7 8 1014.6 - 0.0
28/11:00pm 15.0 13.1 11.7 80 1.8 N 13 15 7 8 1014.9 - 0.0
28/10:30pm 15.2 12.4 11.5 78 2.0 NNE 17 19 9 10 1015.1 - 0.0
28/10:00pm 15.8 13.5 11.7 76 2.2 NNE 15 17 8 9 1015.4 - 0.0
28/09:30pm 16.2 14.6 12.8 80 1.9 NNE 13 15 7 8 1015.7 - 0.0
28/09:00pm 16.5 15.5 13.3 81 1.8 NNE 11 11 6 6 1015.8 1015.8 0.0
28/08:30pm 16.7 15.3 13.5 81 1.8 NNE 13 13 7 7 1015.7 - 0.0
28/08:00pm 16.3 14.9 13.4 83 1.6 N 13 13 7 7 1015.6 - 0.0
28/07:30pm 17.4 16.6 13.9 80 2.0 N 11 15 6 8 1015.5 - 0.0
28/07:00pm 19.0 17.8 13.9 72 2.9 NNW 13 15 7 8 1015.3 - 0.0
28/06:30pm 19.4 17.6 13.2 67 3.5 NNW 15 19 8 10 1015.2 - 0.0
28/06:00pm 19.8 17.4 12.5 62 4.1 NW 17 28 9 15 1014.9 1014.9 0.0
28/05:30pm 20.4 17.0 11.3 56 5.0 NW 20 30 11 16 1014.8 - 0.0
28/05:00pm 20.9 17.1 11.1 53 5.4 NW 22 30 12 16 1014.7 - 0.0
28/04:30pm 21.6 16.5 9.2 45 6.6 NW 26 33 14 18 1014.4 - 0.0
28/04:00pm 22.3 16.9 8.0 40 7.5 NW 26 33 14 18 1014.6 - 0.0
28/03:30pm 23.1 17.1 7.1 35 8.3 NW 28 39 15 21 1014.5 - 0.0
28/03:00pm 23.3 17.1 6.3 33 8.7 NW 28 37 15 20 1014.6 1014.6 0.0
28/02:34pm 24.3 17.5 0.9 21 10.9 NW 26 33 14 18 1014.6 - 0.0
28/02:00pm 24.2 17.9 3.8 26 10.0 NW 26 35 14 19 1014.7 - 0.0
28/01:30pm 24.1 17.3 3.3 25 10.1 NW 28 41 15 22 1014.8 - 0.0
28/01:00pm 24.5 19.3 7.1 32 9.1 NNW 24 33 13 18 1015.2 - 0.0
28/12:30pm 23.3 18.7 5.7 32 8.9 NNW 19 26 10 14 1015.7 - 0.0
28/12:00pm 21.4 18.6 10.1 48 6.1 NNW 15 26 8 14 1015.9 1015.9 0.0
28/11:30am 20.6 18.0 9.3 48 6.0 N 13 17 7 9 1016.2 - 0.0
28/11:00am 19.7 17.4 10.4 55 5.0 N 13 20 7 11 1016.4 - 0.0
28/10:30am 18.9 15.6 9.6 54 4.9 N 17 19 9 10 1016.5 - 0.0
28/10:00am 17.0 14.4 9.5 61 3.9 N 13 17 7 9 1016.8 - 0.0
28/09:30am 16.1 14.0 9.8 66 3.3 N 11 15 6 8 1017.0 - 0.0
28/09:00am 15.1 12.5 9.5 69 2.9 NNE 13 15 7 8 1017.1 1017.1 0.0
28/08:30am 14.0 11.9 9.9 76 2.1 NNE 11 13 6 7 1017.1 - 0.0
28/08:00am 13.3 11.1 9.4 77 2.0 NNE 11 11 6 6 1017.0 - 0.0
28/07:30am 12.0 9.8 9.2 83 1.4 N 11 13 6 7 1016.9 - 0.0
28/07:00am 11.9 9.6 8.9 82 1.5 NNE 11 13 6 7 1016.6 - 0.0
28/06:30am 11.8 9.1 9.0 83 1.4 NNE 13 13 7 7 1016.5 - 0.0
28/06:00am 11.7 9.0 8.9 83 1.4 NNE 13 15 7 8 1016.3 1016.3 0.0
28/05:30am 11.6 8.9 8.8 83 1.4 N 13 15 7 8 1016.2 - 0.0
28/05:00am 11.7 8.6 8.7 82 1.5 NNE 15 17 8 9 1016.2 - 0.0
28/04:30am 12.0 9.6 8.6 80 1.7 NNE 11 13 6 7 1016.4 - 0.0
28/04:00am 11.5 9.2 8.9 84 1.3 NNE 11 13 6 7 1016.1 - 0.0
28/03:30am 11.8 9.1 8.8 82 1.5 N 13 15 7 8 1016.2 - 0.0
28/03:00am 10.6 9.2 9.0 90 0.8 NNE 6 7 3 4 1016.3 1016.3 0.0
28/02:30am 10.7 8.8 9.1 90 0.8 NNE 9 11 5 6 1016.7 - 0.0
28/02:00am 10.8 8.9 9.0 89 0.9 N 9 11 5 6 1016.8 - 0.0
28/01:30am 11.4 9.9 9.0 85 1.2 N 7 9 4 5 1017.2 - 0.0
28/01:00am 11.6 9.7 9.2 85 1.2 NNE 9 11 5 6 1017.5 - 0.0
28/12:30am 11.5 9.6 9.1 85 1.2 N 9 9 5 5 1017.7 - 0.0
28/12:00am 11.6 9.7 9.2 85 1.2 N 9 15 5 8 1017.9 1017.9 0.0
 
Date/Time
WST
Temp
°C
App
Temp
°C
Dew
Point
Rel
Hum
%
Delta-T
°C
Wind Press
QNH
hPa
Press
MSL
hPa
Rain
since 9 am
mm
Dir
 
Spd
km/h
Gust
km/h
Spd
kts
Gust
kts
27/11:30pm 12.8 10.2 9.2 79 1.8 NE 13 15 7 8 1018.0 - 0.0
27/11:00pm 11.3 9.1 9.3 87 1.0 NNE 11 11 6 6 1018.8 - 0.0
27/10:30pm 12.5 10.7 9.5 82 1.5 NNE 9 13 5 7 1019.3 - 0.0
27/10:00pm 12.9 11.5 9.6 80 1.7 NNE 7 9 4 5 1019.3 - 0.0
27/09:30pm 13.5 10.9 9.4 76 2.1 NE 13 15 7 8 1019.3 - 0.0
27/09:00pm 13.7 11.2 9.6 76 2.1 NE 13 15 7 8 1019.7 1019.7 0.0
27/08:30pm 14.0 11.8 9.5 74 2.3 NE 11 15 6 8 1020.1 - 0.0
27/08:00pm 13.3 11.2 9.6 78 1.9 ENE 11 15 6 8 1020.1 - 0.0
27/07:30pm 13.5 12.3 9.4 76 2.1 SW 6 9 3 5 1019.9 - 0.0
27/07:00pm 16.1 14.4 9.8 66 3.3 SW 9 11 5 6 1019.9 - 0.0
27/06:30pm 16.9 14.6 8.9 59 4.1 SW 11 13 6 7 1019.9 - 0.0
27/06:00pm 17.4 14.2 8.6 56 4.5 WSW 15 20 8 11 1020.0 1020.0 0.0
27/05:30pm 18.1 15.1 9.3 56 4.6 SW 15 24 8 13 1019.7 - 0.0
27/05:00pm 18.9 15.6 9.6 54 4.9 WSW 17 20 9 11 1019.3 - 0.0
27/04:30pm 19.3 15.9 9.2 52 5.3 WSW 17 26 9 14 1019.5 - 0.0
27/04:00pm 19.8 15.6 8.4 47 5.9 WSW 20 30 11 16 1019.3 - 0.0
27/03:30pm 20.4 16.1 8.0 44 6.4 WSW 20 30 11 16 1019.2 - 0.0
27/03:00pm 20.6 16.9 10.2 51 5.6 WNW 20 24 11 13 1019.0 1019.0 0.0
27/02:30pm 20.9 17.5 10.6 51 5.6 W 19 28 10 15 1018.7 - 0.0

Other Formats:

Comma delimited format used in spreadsheet applications
http://www.bom.gov.au/fwo/IDW60801/IDW60801.94610.axf

JavaScript Object Notation format (JSON) in row-major order
http://www.bom.gov.au/fwo/IDW60801/IDW60801.94610.json